sensor_id;sensor_type;location;lat;lon;timestamp;P1;durP1;ratioP1;P2;durP2;ratioP2
14923;SDS011;7554;43.600;1.480;2023-12-22T00:01:56;29.63;;;5.40;;
14923;SDS011;7554;43.600;1.480;2023-12-22T00:04:24;27.20;;;4.63;;
14923;SDS011;7554;43.600;1.480;2023-12-22T00:06:53;40.13;;;6.20;;
14923;SDS011;7554;43.600;1.480;2023-12-22T00:09:20;37.33;;;6.30;;
14923;SDS011;7554;43.600;1.480;2023-12-22T00:11:47;34.70;;;5.23;;
14923;SDS011;7554;43.600;1.480;2023-12-22T00:14:14;29.03;;;6.10;;
14923;SDS011;7554;43.600;1.480;2023-12-22T00:16:42;34.57;;;5.70;;
14923;SDS011;7554;43.600;1.480;2023-12-22T00:19:09;33.83;;;5.47;;
14923;SDS011;7554;43.600;1.480;2023-12-22T00:21:37;30.27;;;5.03;;
14923;SDS011;7554;43.600;1.480;2023-12-22T00:24:06;27.00;;;5.17;;
14923;SDS011;7554;43.600;1.480;2023-12-22T00:26:33;35.10;;;5.43;;
14923;SDS011;7554;43.600;1.480;2023-12-22T00:29:00;28.80;;;4.93;;
14923;SDS011;7554;43.600;1.480;2023-12-22T00:31:28;28.23;;;4.77;;
14923;SDS011;7554;43.600;1.480;2023-12-22T00:33:55;36.57;;;5.80;;
14923;SDS011;7554;43.600;1.480;2023-12-22T00:36:22;29.40;;;4.97;;
14923;SDS011;7554;43.600;1.480;2023-12-22T00:38:50;28.73;;;4.77;;
14923;SDS011;7554;43.600;1.480;2023-12-22T00:41:19;34.33;;;5.47;;
14923;SDS011;7554;43.600;1.480;2023-12-22T00:43:46;37.37;;;5.43;;
14923;SDS011;7554;43.600;1.480;2023-12-22T00:46:13;31.23;;;5.00;;
14923;SDS011;7554;43.600;1.480;2023-12-22T00:48:41;30.50;;;4.80;;
14923;SDS011;7554;43.600;1.480;2023-12-22T00:51:08;33.40;;;5.57;;
14923;SDS011;7554;43.600;1.480;2023-12-22T00:53:35;39.07;;;5.53;;
14923;SDS011;7554;43.600;1.480;2023-12-22T00:56:03;35.70;;;5.47;;
14923;SDS011;7554;43.600;1.480;2023-12-22T00:58:32;30.13;;;5.80;;
14923;SDS011;7554;43.600;1.480;2023-12-22T01:01:00;33.33;;;5.37;;
14923;SDS011;7554;43.600;1.480;2023-12-22T01:03:27;28.53;;;5.10;;
14923;SDS011;7554;43.600;1.480;2023-12-22T01:05:55;33.77;;;5.00;;
14923;SDS011;7554;43.600;1.480;2023-12-22T01:08:22;28.23;;;4.77;;
14923;SDS011;7554;43.600;1.480;2023-12-22T01:10:50;29.63;;;4.50;;
14923;SDS011;7554;43.600;1.480;2023-12-22T01:13:19;34.40;;;4.37;;
14923;SDS011;7554;43.600;1.480;2023-12-22T01:15:48;28.77;;;4.67;;
14923;SDS011;7554;43.600;1.480;2023-12-22T01:18:15;36.27;;;4.10;;
14923;SDS011;7554;43.600;1.480;2023-12-22T01:20:42;24.20;;;3.90;;
14923;SDS011;7554;43.600;1.480;2023-12-22T01:23:10;26.70;;;3.43;;
14923;SDS011;7554;43.600;1.480;2023-12-22T01:25:37;25.77;;;4.27;;
14923;SDS011;7554;43.600;1.480;2023-12-22T01:28:05;28.40;;;4.87;;
14923;SDS011;7554;43.600;1.480;2023-12-22T01:30:32;29.57;;;4.47;;
14923;SDS011;7554;43.600;1.480;2023-12-22T01:33:01;27.10;;;4.20;;
14923;SDS011;7554;43.600;1.480;2023-12-22T01:35:28;22.33;;;3.80;;
14923;SDS011;7554;43.600;1.480;2023-12-22T01:37:56;25.43;;;3.33;;
14923;SDS011;7554;43.600;1.480;2023-12-22T01:40:23;25.97;;;3.67;;
14923;SDS011;7554;43.600;1.480;2023-12-22T01:42:51;20.67;;;3.30;;
14923;SDS011;7554;43.600;1.480;2023-12-22T01:45:18;27.17;;;3.67;;
14923;SDS011;7554;43.600;1.480;2023-12-22T01:47:45;28.23;;;3.50;;
14923;SDS011;7554;43.600;1.480;2023-12-22T01:50:15;20.40;;;3.30;;
14923;SDS011;7554;43.600;1.480;2023-12-22T01:52:43;22.17;;;3.73;;
14923;SDS011;7554;43.600;1.480;2023-12-22T01:55:11;22.23;;;3.57;;
14923;SDS011;7554;43.600;1.480;2023-12-22T01:57:39;14.33;;;2.80;;
14923;SDS011;7554;43.600;1.480;2023-12-22T02:00:07;16.77;;;2.73;;
14923;SDS011;7554;43.600;1.480;2023-12-22T02:02:36;18.07;;;2.77;;
14923;SDS011;7554;43.600;1.480;2023-12-22T02:05:05;16.93;;;2.50;;
14923;SDS011;7554;43.600;1.480;2023-12-22T02:07:38;19.07;;;2.60;;
14923;SDS011;7554;43.600;1.480;2023-12-22T02:10:07;17.43;;;2.40;;
14923;SDS011;7554;43.600;1.480;2023-12-22T02:12:36;15.97;;;2.77;;
14923;SDS011;7554;43.600;1.480;2023-12-22T02:15:03;15.97;;;2.47;;
14923;SDS011;7554;43.600;1.480;2023-12-22T02:17:33;15.43;;;2.67;;
14923;SDS011;7554;43.600;1.480;2023-12-22T02:20:09;16.43;;;2.37;;
14923;SDS011;7554;43.600;1.480;2023-12-22T02:22:38;10.37;;;1.97;;
14923;SDS011;7554;43.600;1.480;2023-12-22T02:25:05;12.37;;;2.60;;
14923;SDS011;7554;43.600;1.480;2023-12-22T02:27:34;12.80;;;2.40;;
14923;SDS011;7554;43.600;1.480;2023-12-22T02:30:07;11.90;;;2.00;;
14923;SDS011;7554;43.600;1.480;2023-12-22T02:32:40;13.93;;;2.23;;
14923;SDS011;7554;43.600;1.480;2023-12-22T02:35:09;12.40;;;1.97;;
14923;SDS011;7554;43.600;1.480;2023-12-22T02:37:42;12.23;;;2.30;;
14923;SDS011;7554;43.600;1.480;2023-12-22T02:40:11;14.17;;;2.20;;
14923;SDS011;7554;43.600;1.480;2023-12-22T02:42:40;9.60;;;1.73;;
14923;SDS011;7554;43.600;1.480;2023-12-22T02:45:12;10.77;;;1.97;;
14923;SDS011;7554;43.600;1.480;2023-12-22T02:47:40;8.60;;;1.73;;
14923;SDS011;7554;43.600;1.480;2023-12-22T02:50:08;13.40;;;1.93;;
14923;SDS011;7554;43.600;1.480;2023-12-22T02:52:36;11.07;;;1.80;;
14923;SDS011;7554;43.600;1.480;2023-12-22T02:55:05;9.27;;;1.70;;
14923;SDS011;7554;43.600;1.480;2023-12-22T02:57:32;10.00;;;2.00;;
14923;SDS011;7554;43.600;1.480;2023-12-22T03:00:00;10.00;;;1.73;;
14923;SDS011;7554;43.600;1.480;2023-12-22T03:02:27;9.17;;;1.60;;
14923;SDS011;7554;43.600;1.480;2023-12-22T03:04:55;10.03;;;1.93;;
14923;SDS011;7554;43.600;1.480;2023-12-22T03:07:22;12.57;;;2.00;;
14923;SDS011;7554;43.600;1.480;2023-12-22T03:09:49;13.17;;;1.83;;
14923;SDS011;7554;43.600;1.480;2023-12-22T03:12:18;10.47;;;1.70;;
14923;SDS011;7554;43.600;1.480;2023-12-22T03:14:45;9.37;;;1.50;;
14923;SDS011;7554;43.600;1.480;2023-12-22T03:17:12;6.27;;;1.57;;
14923;SDS011;7554;43.600;1.480;2023-12-22T03:19:40;10.67;;;1.90;;
14923;SDS011;7554;43.600;1.480;2023-12-22T03:22:07;7.20;;;1.60;;
14923;SDS011;7554;43.600;1.480;2023-12-22T03:24:34;8.13;;;1.30;;
14923;SDS011;7554;43.600;1.480;2023-12-22T03:27:02;2.90;;;0.90;;
14923;SDS011;7554;43.600;1.480;2023-12-22T03:29:31;5.93;;;1.27;;
14923;SDS011;7554;43.600;1.480;2023-12-22T03:31:58;6.13;;;1.40;;
14923;SDS011;7554;43.600;1.480;2023-12-22T03:34:26;8.77;;;1.53;;
14923;SDS011;7554;43.600;1.480;2023-12-22T03:36:53;5.33;;;1.23;;
14923;SDS011;7554;43.600;1.480;2023-12-22T03:39:20;5.00;;;0.90;;
14923;SDS011;7554;43.600;1.480;2023-12-22T03:41:47;5.40;;;1.00;;
14923;SDS011;7554;43.600;1.480;2023-12-22T03:44:15;8.57;;;1.20;;
14923;SDS011;7554;43.600;1.480;2023-12-22T03:46:43;5.03;;;0.90;;
14923;SDS011;7554;43.600;1.480;2023-12-22T03:49:11;2.93;;;0.90;;
14923;SDS011;7554;43.600;1.480;2023-12-22T03:51:38;6.67;;;1.00;;
14923;SDS011;7554;43.600;1.480;2023-12-22T03:54:06;4.13;;;0.93;;
14923;SDS011;7554;43.600;1.480;2023-12-22T03:56:35;6.20;;;1.30;;
14923;SDS011;7554;43.600;1.480;2023-12-22T03:59:02;7.50;;;0.93;;
14923;SDS011;7554;43.600;1.480;2023-12-22T04:01:30;2.57;;;0.70;;
14923;SDS011;7554;43.600;1.480;2023-12-22T04:03:58;7.10;;;1.17;;
14923;SDS011;7554;43.600;1.480;2023-12-22T04:06:26;9.07;;;0.80;;
14923;SDS011;7554;43.600;1.480;2023-12-22T04:08:54;5.00;;;0.77;;
14923;SDS011;7554;43.600;1.480;2023-12-22T04:11:21;5.17;;;0.80;;
14923;SDS011;7554;43.600;1.480;2023-12-22T04:13:48;5.77;;;0.90;;
14923;SDS011;7554;43.600;1.480;2023-12-22T04:16:16;4.70;;;0.83;;
14923;SDS011;7554;43.600;1.480;2023-12-22T04:18:43;4.07;;;0.80;;
14923;SDS011;7554;43.600;1.480;2023-12-22T04:21:11;4.20;;;0.73;;
14923;SDS011;7554;43.600;1.480;2023-12-22T04:23:39;3.23;;;0.70;;
14923;SDS011;7554;43.600;1.480;2023-12-22T04:26:06;2.97;;;0.60;;
14923;SDS011;7554;43.600;1.480;2023-12-22T04:28:33;4.87;;;0.73;;
14923;SDS011;7554;43.600;1.480;2023-12-22T04:31:01;3.30;;;0.70;;
14923;SDS011;7554;43.600;1.480;2023-12-22T04:33:29;4.90;;;0.87;;
14923;SDS011;7554;43.600;1.480;2023-12-22T04:35:56;4.47;;;0.83;;
14923;SDS011;7554;43.600;1.480;2023-12-22T04:38:25;3.60;;;0.80;;
14923;SDS011;7554;43.600;1.480;2023-12-22T04:40:52;5.63;;;1.07;;
14923;SDS011;7554;43.600;1.480;2023-12-22T04:43:19;4.17;;;0.70;;
14923;SDS011;7554;43.600;1.480;2023-12-22T04:45:47;4.30;;;0.80;;
14923;SDS011;7554;43.600;1.480;2023-12-22T04:48:14;5.27;;;0.70;;
14923;SDS011;7554;43.600;1.480;2023-12-22T04:50:41;1.77;;;0.40;;
14923;SDS011;7554;43.600;1.480;2023-12-22T04:53:09;5.07;;;0.80;;
14923;SDS011;7554;43.600;1.480;2023-12-22T04:55:37;2.03;;;0.60;;
14923;SDS011;7554;43.600;1.480;2023-12-22T04:58:05;3.70;;;0.67;;
14923;SDS011;7554;43.600;1.480;2023-12-22T05:00:32;1.70;;;0.77;;
14923;SDS011;7554;43.600;1.480;2023-12-22T05:02:59;5.80;;;0.77;;
14923;SDS011;7554;43.600;1.480;2023-12-22T05:05:26;1.53;;;0.50;;
14923;SDS011;7554;43.600;1.480;2023-12-22T05:07:54;2.50;;;0.63;;
14923;SDS011;7554;43.600;1.480;2023-12-22T05:10:22;1.67;;;0.60;;
14923;SDS011;7554;43.600;1.480;2023-12-22T05:12:51;6.17;;;0.60;;
14923;SDS011;7554;43.600;1.480;2023-12-22T05:15:18;2.30;;;0.60;;
14923;SDS011;7554;43.600;1.480;2023-12-22T05:17:45;2.17;;;0.60;;
14923;SDS011;7554;43.600;1.480;2023-12-22T05:20:12;1.43;;;0.50;;
14923;SDS011;7554;43.600;1.480;2023-12-22T05:22:40;1.33;;;0.60;;
14923;SDS011;7554;43.600;1.480;2023-12-22T05:25:08;1.73;;;0.50;;
14923;SDS011;7554;43.600;1.480;2023-12-22T05:27:35;2.23;;;0.40;;
14923;SDS011;7554;43.600;1.480;2023-12-22T05:30:05;2.40;;;0.50;;
14923;SDS011;7554;43.600;1.480;2023-12-22T05:32:33;2.83;;;0.40;;
14923;SDS011;7554;43.600;1.480;2023-12-22T05:35:01;0.93;;;0.20;;
14923;SDS011;7554;43.600;1.480;2023-12-22T05:37:28;0.87;;;0.30;;
14923;SDS011;7554;43.600;1.480;2023-12-22T05:39:55;3.43;;;0.30;;
14923;SDS011;7554;43.600;1.480;2023-12-22T05:42:22;1.80;;;0.50;;
14923;SDS011;7554;43.600;1.480;2023-12-22T05:44:50;1.43;;;0.50;;
14923;SDS011;7554;43.600;1.480;2023-12-22T05:47:18;1.53;;;0.47;;
14923;SDS011;7554;43.600;1.480;2023-12-22T05:49:46;1.20;;;0.37;;
14923;SDS011;7554;43.600;1.480;2023-12-22T05:52:13;1.10;;;0.60;;
14923;SDS011;7554;43.600;1.480;2023-12-22T05:54:40;2.17;;;0.57;;
14923;SDS011;7554;43.600;1.480;2023-12-22T05:57:08;2.27;;;0.70;;
14923;SDS011;7554;43.600;1.480;2023-12-22T05:59:35;2.73;;;1.03;;
14923;SDS011;7554;43.600;1.480;2023-12-22T06:02:02;2.03;;;0.80;;
14923;SDS011;7554;43.600;1.480;2023-12-22T06:04:31;1.07;;;0.40;;
14923;SDS011;7554;43.600;1.480;2023-12-22T06:07:00;1.80;;;0.50;;
14923;SDS011;7554;43.600;1.480;2023-12-22T06:09:27;3.83;;;0.80;;
14923;SDS011;7554;43.600;1.480;2023-12-22T06:11:54;1.53;;;0.50;;
14923;SDS011;7554;43.600;1.480;2023-12-22T06:14:23;3.63;;;1.00;;
14923;SDS011;7554;43.600;1.480;2023-12-22T06:16:50;4.13;;;0.87;;
14923;SDS011;7554;43.600;1.480;2023-12-22T06:19:18;2.77;;;0.60;;
14923;SDS011;7554;43.600;1.480;2023-12-22T06:21:48;2.63;;;0.57;;
14923;SDS011;7554;43.600;1.480;2023-12-22T06:24:15;2.40;;;0.83;;
14923;SDS011;7554;43.600;1.480;2023-12-22T06:26:43;2.80;;;0.70;;
14923;SDS011;7554;43.600;1.480;2023-12-22T06:29:10;4.07;;;0.70;;
14923;SDS011;7554;43.600;1.480;2023-12-22T06:31:38;1.87;;;0.90;;
14923;SDS011;7554;43.600;1.480;2023-12-22T06:34:05;3.03;;;1.10;;
14923;SDS011;7554;43.600;1.480;2023-12-22T06:36:32;3.23;;;0.90;;
14923;SDS011;7554;43.600;1.480;2023-12-22T06:39:01;3.17;;;0.80;;
14923;SDS011;7554;43.600;1.480;2023-12-22T06:41:29;2.07;;;1.00;;
14923;SDS011;7554;43.600;1.480;2023-12-22T06:43:57;2.53;;;0.70;;
14923;SDS011;7554;43.600;1.480;2023-12-22T06:46:26;2.97;;;0.77;;
14923;SDS011;7554;43.600;1.480;2023-12-22T06:48:54;0.73;;;0.50;;
14923;SDS011;7554;43.600;1.480;2023-12-22T06:51:22;2.87;;;1.10;;
14923;SDS011;7554;43.600;1.480;2023-12-22T06:53:52;1.67;;;0.50;;
14923;SDS011;7554;43.600;1.480;2023-12-22T06:56:23;1.80;;;0.50;;
14923;SDS011;7554;43.600;1.480;2023-12-22T06:58:51;0.77;;;0.43;;
14923;SDS011;7554;43.600;1.480;2023-12-22T07:01:19;0.90;;;0.70;;
14923;SDS011;7554;43.600;1.480;2023-12-22T07:03:47;1.13;;;0.60;;
14923;SDS011;7554;43.600;1.480;2023-12-22T07:06:14;2.03;;;0.67;;
14923;SDS011;7554;43.600;1.480;2023-12-22T07:08:42;2.30;;;0.70;;
14923;SDS011;7554;43.600;1.480;2023-12-22T07:11:09;7.97;;;2.30;;
14923;SDS011;7554;43.600;1.480;2023-12-22T07:13:38;3.47;;;0.97;;
14923;SDS011;7554;43.600;1.480;2023-12-22T07:16:06;2.87;;;1.00;;
14923;SDS011;7554;43.600;1.480;2023-12-22T07:18:33;1.83;;;0.80;;
14923;SDS011;7554;43.600;1.480;2023-12-22T07:21:04;2.37;;;1.10;;
14923;SDS011;7554;43.600;1.480;2023-12-22T07:23:31;4.63;;;1.30;;
14923;SDS011;7554;43.600;1.480;2023-12-22T07:25:58;2.57;;;0.90;;
14923;SDS011;7554;43.600;1.480;2023-12-22T07:28:25;2.47;;;0.80;;
14923;SDS011;7554;43.600;1.480;2023-12-22T07:30:54;2.20;;;0.80;;
14923;SDS011;7554;43.600;1.480;2023-12-22T07:33:22;1.63;;;0.77;;
14923;SDS011;7554;43.600;1.480;2023-12-22T07:35:49;1.47;;;0.70;;
14923;SDS011;7554;43.600;1.480;2023-12-22T07:38:16;1.90;;;0.87;;
14923;SDS011;7554;43.600;1.480;2023-12-22T07:40:43;1.10;;;0.77;;
14923;SDS011;7554;43.600;1.480;2023-12-22T07:43:11;3.07;;;1.00;;
14923;SDS011;7554;43.600;1.480;2023-12-22T07:45:39;4.60;;;1.83;;
14923;SDS011;7554;43.600;1.480;2023-12-22T07:48:08;1.87;;;1.00;;
14923;SDS011;7554;43.600;1.480;2023-12-22T07:50:35;3.30;;;1.47;;
14923;SDS011;7554;43.600;1.480;2023-12-22T07:53:03;3.97;;;3.17;;
14923;SDS011;7554;43.600;1.480;2023-12-22T07:55:30;4.53;;;2.73;;
14923;SDS011;7554;43.600;1.480;2023-12-22T07:57:57;4.77;;;2.97;;
14923;SDS011;7554;43.600;1.480;2023-12-22T08:00:25;5.80;;;2.90;;
14923;SDS011;7554;43.600;1.480;2023-12-22T08:02:53;4.07;;;1.20;;
14923;SDS011;7554;43.600;1.480;2023-12-22T08:05:21;2.17;;;0.90;;
14923;SDS011;7554;43.600;1.480;2023-12-22T08:07:49;0.90;;;0.73;;
14923;SDS011;7554;43.600;1.480;2023-12-22T08:10:16;2.33;;;0.90;;
14923;SDS011;7554;43.600;1.480;2023-12-22T08:12:44;4.50;;;1.20;;
14923;SDS011;7554;43.600;1.480;2023-12-22T08:15:11;14.60;;;3.20;;
14923;SDS011;7554;43.600;1.480;2023-12-22T08:17:45;5.60;;;1.23;;
14923;SDS011;7554;43.600;1.480;2023-12-22T08:20:16;4.00;;;0.93;;
14923;SDS011;7554;43.600;1.480;2023-12-22T08:22:45;2.63;;;0.80;;
14923;SDS011;7554;43.600;1.480;2023-12-22T08:25:13;4.23;;;1.50;;
14923;SDS011;7554;43.600;1.480;2023-12-22T08:27:40;3.30;;;1.00;;
14923;SDS011;7554;43.600;1.480;2023-12-22T08:30:08;3.20;;;0.87;;
14923;SDS011;7554;43.600;1.480;2023-12-22T08:32:36;2.07;;;1.10;;
14923;SDS011;7554;43.600;1.480;2023-12-22T08:35:04;5.23;;;0.70;;
14923;SDS011;7554;43.600;1.480;2023-12-22T08:37:32;2.80;;;0.67;;
14923;SDS011;7554;43.600;1.480;2023-12-22T08:40:00;2.77;;;0.80;;
14923;SDS011;7554;43.600;1.480;2023-12-22T08:42:28;3.87;;;0.70;;
14923;SDS011;7554;43.600;1.480;2023-12-22T08:44:56;4.60;;;0.80;;
14923;SDS011;7554;43.600;1.480;2023-12-22T08:47:24;3.30;;;1.03;;
14923;SDS011;7554;43.600;1.480;2023-12-22T08:49:51;3.93;;;1.10;;
14923;SDS011;7554;43.600;1.480;2023-12-22T08:52:19;2.43;;;1.10;;
14923;SDS011;7554;43.600;1.480;2023-12-22T08:54:46;5.33;;;1.50;;
14923;SDS011;7554;43.600;1.480;2023-12-22T08:57:15;4.13;;;1.10;;
14923;SDS011;7554;43.600;1.480;2023-12-22T08:59:42;5.03;;;1.37;;
14923;SDS011;7554;43.600;1.480;2023-12-22T09:02:09;3.37;;;1.80;;
14923;SDS011;7554;43.600;1.480;2023-12-22T09:04:37;4.57;;;1.40;;
14923;SDS011;7554;43.600;1.480;2023-12-22T09:07:04;4.23;;;1.30;;
14923;SDS011;7554;43.600;1.480;2023-12-22T09:09:32;5.80;;;1.30;;
14923;SDS011;7554;43.600;1.480;2023-12-22T09:11:59;7.60;;;1.30;;
14923;SDS011;7554;43.600;1.480;2023-12-22T09:14:28;4.60;;;1.50;;
14923;SDS011;7554;43.600;1.480;2023-12-22T09:16:54;4.63;;;2.10;;
14923;SDS011;7554;43.600;1.480;2023-12-22T09:19:22;5.27;;;2.00;;
14923;SDS011;7554;43.600;1.480;2023-12-22T09:21:49;5.80;;;1.80;;
14923;SDS011;7554;43.600;1.480;2023-12-22T09:24:16;2.53;;;1.27;;
14923;SDS011;7554;43.600;1.480;2023-12-22T09:26:43;6.17;;;1.63;;
14923;SDS011;7554;43.600;1.480;2023-12-22T09:29:11;1.40;;;1.07;;
14923;SDS011;7554;43.600;1.480;2023-12-22T09:31:40;2.97;;;0.87;;
14923;SDS011;7554;43.600;1.480;2023-12-22T09:34:07;2.00;;;0.90;;
14923;SDS011;7554;43.600;1.480;2023-12-22T09:36:35;4.23;;;1.10;;
14923;SDS011;7554;43.600;1.480;2023-12-22T09:39:02;3.20;;;1.60;;
14923;SDS011;7554;43.600;1.480;2023-12-22T09:41:30;2.00;;;0.60;;
14923;SDS011;7554;43.600;1.480;2023-12-22T09:43:57;2.00;;;0.80;;
14923;SDS011;7554;43.600;1.480;2023-12-22T09:46:26;1.83;;;0.80;;
14923;SDS011;7554;43.600;1.480;2023-12-22T09:48:56;3.70;;;1.27;;
14923;SDS011;7554;43.600;1.480;2023-12-22T09:51:25;3.83;;;1.13;;
14923;SDS011;7554;43.600;1.480;2023-12-22T09:53:54;2.90;;;0.97;;
14923;SDS011;7554;43.600;1.480;2023-12-22T09:56:23;1.67;;;0.83;;
14923;SDS011;7554;43.600;1.480;2023-12-22T09:58:51;2.53;;;1.03;;
14923;SDS011;7554;43.600;1.480;2023-12-22T10:01:19;3.43;;;0.73;;
14923;SDS011;7554;43.600;1.480;2023-12-22T10:03:48;2.70;;;0.90;;
14923;SDS011;7554;43.600;1.480;2023-12-22T10:06:17;1.63;;;0.80;;
14923;SDS011;7554;43.600;1.480;2023-12-22T10:08:46;4.53;;;0.80;;
14923;SDS011;7554;43.600;1.480;2023-12-22T10:11:16;2.37;;;0.80;;
14923;SDS011;7554;43.600;1.480;2023-12-22T10:13:46;2.97;;;0.67;;
14923;SDS011;7554;43.600;1.480;2023-12-22T10:16:15;2.13;;;0.73;;
14923;SDS011;7554;43.600;1.480;2023-12-22T10:18:42;2.23;;;0.70;;
14923;SDS011;7554;43.600;1.480;2023-12-22T10:21:10;1.93;;;0.73;;
14923;SDS011;7554;43.600;1.480;2023-12-22T10:23:39;1.57;;;0.60;;
14923;SDS011;7554;43.600;1.480;2023-12-22T10:26:07;1.50;;;0.90;;
14923;SDS011;7554;43.600;1.480;2023-12-22T10:28:37;2.17;;;0.80;;
14923;SDS011;7554;43.600;1.480;2023-12-22T10:31:05;7.00;;;1.40;;
14923;SDS011;7554;43.600;1.480;2023-12-22T10:33:33;3.73;;;1.17;;
14923;SDS011;7554;43.600;1.480;2023-12-22T10:36:00;3.20;;;0.97;;
14923;SDS011;7554;43.600;1.480;2023-12-22T10:38:32;4.37;;;1.30;;
14923;SDS011;7554;43.600;1.480;2023-12-22T10:41:01;2.57;;;1.00;;
14923;SDS011;7554;43.600;1.480;2023-12-22T10:43:29;1.20;;;0.80;;
14923;SDS011;7554;43.600;1.480;2023-12-22T10:45:57;3.07;;;1.30;;
14923;SDS011;7554;43.600;1.480;2023-12-22T10:48:24;1.90;;;0.60;;
14923;SDS011;7554;43.600;1.480;2023-12-22T10:50:52;1.27;;;0.60;;
14923;SDS011;7554;43.600;1.480;2023-12-22T10:53:20;1.37;;;0.53;;
14923;SDS011;7554;43.600;1.480;2023-12-22T10:55:49;2.77;;;0.63;;
14923;SDS011;7554;43.600;1.480;2023-12-22T10:58:18;1.87;;;0.57;;
14923;SDS011;7554;43.600;1.480;2023-12-22T11:00:45;2.07;;;0.70;;
14923;SDS011;7554;43.600;1.480;2023-12-22T11:03:16;5.53;;;1.07;;
14923;SDS011;7554;43.600;1.480;2023-12-22T11:05:45;2.10;;;0.87;;
14923;SDS011;7554;43.600;1.480;2023-12-22T11:08:14;3.23;;;0.90;;
14923;SDS011;7554;43.600;1.480;2023-12-22T11:10:44;2.60;;;1.00;;
14923;SDS011;7554;43.600;1.480;2023-12-22T11:13:18;1.10;;;0.80;;
14923;SDS011;7554;43.600;1.480;2023-12-22T11:15:47;1.07;;;0.80;;
14923;SDS011;7554;43.600;1.480;2023-12-22T11:18:15;1.40;;;0.80;;
14923;SDS011;7554;43.600;1.480;2023-12-22T11:20:45;1.57;;;0.70;;
14923;SDS011;7554;43.600;1.480;2023-12-22T11:23:14;4.53;;;1.90;;
14923;SDS011;7554;43.600;1.480;2023-12-22T11:25:44;1.80;;;0.80;;
14923;SDS011;7554;43.600;1.480;2023-12-22T11:28:17;0.90;;;0.70;;
14923;SDS011;7554;43.600;1.480;2023-12-22T11:30:47;1.00;;;0.70;;
14923;SDS011;7554;43.600;1.480;2023-12-22T11:33:17;0.97;;;0.67;;
14923;SDS011;7554;43.600;1.480;2023-12-22T11:35:45;3.73;;;0.97;;
14923;SDS011;7554;43.600;1.480;2023-12-22T11:38:13;1.43;;;0.63;;
14923;SDS011;7554;43.600;1.480;2023-12-22T11:40:41;2.33;;;1.10;;
14923;SDS011;7554;43.600;1.480;2023-12-22T11:43:08;1.80;;;1.00;;
14923;SDS011;7554;43.600;1.480;2023-12-22T11:45:37;2.07;;;1.20;;
14923;SDS011;7554;43.600;1.480;2023-12-22T11:48:08;1.80;;;1.00;;
14923;SDS011;7554;43.600;1.480;2023-12-22T11:50:36;1.67;;;0.97;;
14923;SDS011;7554;43.600;1.480;2023-12-22T11:53:17;3.03;;;1.10;;
14923;SDS011;7554;43.600;1.480;2023-12-22T11:55:58;2.97;;;1.00;;
14923;SDS011;7554;43.600;1.480;2023-12-22T11:58:38;11.57;;;4.00;;
14923;SDS011;7554;43.600;1.480;2023-12-22T12:01:08;8.27;;;2.70;;
14923;SDS011;7554;43.600;1.480;2023-12-22T12:03:37;2.90;;;1.20;;
14923;SDS011;7554;43.600;1.480;2023-12-22T12:09:00;1.40;;;0.87;;
14923;SDS011;7554;43.600;1.480;2023-12-22T12:14:37;1.73;;;0.90;;
14923;SDS011;7554;43.600;1.480;2023-12-22T12:17:09;1.27;;;0.60;;
14923;SDS011;7554;43.600;1.480;2023-12-22T12:19:37;2.53;;;0.67;;
14923;SDS011;7554;43.600;1.480;2023-12-22T12:22:06;1.13;;;0.70;;
14923;SDS011;7554;43.600;1.480;2023-12-22T12:24:35;2.60;;;1.00;;
14923;SDS011;7554;43.600;1.480;2023-12-22T12:27:03;5.47;;;1.57;;
14923;SDS011;7554;43.600;1.480;2023-12-22T12:29:32;31.87;;;4.07;;
14923;SDS011;7554;43.600;1.480;2023-12-22T12:32:02;2.27;;;1.07;;
14923;SDS011;7554;43.600;1.480;2023-12-22T12:34:32;1.83;;;0.90;;
14923;SDS011;7554;43.600;1.480;2023-12-22T12:37:01;4.33;;;0.80;;
14923;SDS011;7554;43.600;1.480;2023-12-22T12:39:29;8.07;;;1.93;;
14923;SDS011;7554;43.600;1.480;2023-12-22T12:42:00;3.23;;;0.90;;
14923;SDS011;7554;43.600;1.480;2023-12-22T12:44:28;4.30;;;1.00;;
14923;SDS011;7554;43.600;1.480;2023-12-22T12:46:57;1.60;;;0.90;;
14923;SDS011;7554;43.600;1.480;2023-12-22T12:49:25;1.93;;;1.10;;
14923;SDS011;7554;43.600;1.480;2023-12-22T12:51:57;2.40;;;0.80;;
14923;SDS011;7554;43.600;1.480;2023-12-22T12:54:26;1.87;;;0.80;;
14923;SDS011;7554;43.600;1.480;2023-12-22T12:56:53;1.23;;;0.80;;
14923;SDS011;7554;43.600;1.480;2023-12-22T12:59:21;1.67;;;0.83;;
14923;SDS011;7554;43.600;1.480;2023-12-22T13:01:49;1.80;;;1.00;;
14923;SDS011;7554;43.600;1.480;2023-12-22T13:04:17;2.23;;;0.93;;
14923;SDS011;7554;43.600;1.480;2023-12-22T13:06:45;4.30;;;0.90;;
14923;SDS011;7554;43.600;1.480;2023-12-22T13:09:14;5.70;;;1.40;;
14923;SDS011;7554;43.600;1.480;2023-12-22T13:11:42;6.60;;;1.30;;
14923;SDS011;7554;43.600;1.480;2023-12-22T13:14:10;2.10;;;0.90;;
14923;SDS011;7554;43.600;1.480;2023-12-22T13:16:37;2.93;;;2.00;;
14923;SDS011;7554;43.600;1.480;2023-12-22T13:19:05;1.73;;;0.90;;
14923;SDS011;7554;43.600;1.480;2023-12-22T13:21:33;1.83;;;1.00;;
14923;SDS011;7554;43.600;1.480;2023-12-22T13:24:07;3.53;;;1.50;;
14923;SDS011;7554;43.600;1.480;2023-12-22T13:26:37;2.13;;;1.33;;
14923;SDS011;7554;43.600;1.480;2023-12-22T13:29:05;7.20;;;1.80;;
14923;SDS011;7554;43.600;1.480;2023-12-22T13:31:32;12.70;;;3.03;;
14923;SDS011;7554;43.600;1.480;2023-12-22T13:34:00;3.43;;;1.07;;
14923;SDS011;7554;43.600;1.480;2023-12-22T13:36:27;2.20;;;0.83;;
14923;SDS011;7554;43.600;1.480;2023-12-22T13:39:00;5.20;;;0.80;;
14923;SDS011;7554;43.600;1.480;2023-12-22T13:41:29;2.23;;;0.80;;
14923;SDS011;7554;43.600;1.480;2023-12-22T13:44:03;3.13;;;1.00;;
14923;SDS011;7554;43.600;1.480;2023-12-22T13:46:31;1.40;;;0.70;;
14923;SDS011;7554;43.600;1.480;2023-12-22T13:49:00;0.73;;;0.70;;
14923;SDS011;7554;43.600;1.480;2023-12-22T13:51:38;2.50;;;1.07;;
14923;SDS011;7554;43.600;1.480;2023-12-22T13:54:06;2.53;;;1.03;;
14923;SDS011;7554;43.600;1.480;2023-12-22T13:56:33;2.63;;;0.90;;
14923;SDS011;7554;43.600;1.480;2023-12-22T13:59:03;3.07;;;0.90;;
14923;SDS011;7554;43.600;1.480;2023-12-22T14:01:30;1.80;;;0.70;;
14923;SDS011;7554;43.600;1.480;2023-12-22T14:03:58;1.27;;;0.97;;
14923;SDS011;7554;43.600;1.480;2023-12-22T14:06:26;2.83;;;1.10;;
14923;SDS011;7554;43.600;1.480;2023-12-22T14:08:54;1.03;;;0.60;;
14923;SDS011;7554;43.600;1.480;2023-12-22T14:11:21;1.37;;;1.10;;
14923;SDS011;7554;43.600;1.480;2023-12-22T14:13:49;2.10;;;1.00;;
14923;SDS011;7554;43.600;1.480;2023-12-22T14:16:18;2.57;;;0.73;;
14923;SDS011;7554;43.600;1.480;2023-12-22T14:18:45;1.40;;;0.80;;
14923;SDS011;7554;43.600;1.480;2023-12-22T14:21:14;1.57;;;0.90;;
14923;SDS011;7554;43.600;1.480;2023-12-22T14:23:41;2.43;;;1.40;;
14923;SDS011;7554;43.600;1.480;2023-12-22T14:26:08;1.93;;;1.50;;
14923;SDS011;7554;43.600;1.480;2023-12-22T14:28:35;2.20;;;0.90;;
14923;SDS011;7554;43.600;1.480;2023-12-22T14:31:03;1.50;;;0.80;;
14923;SDS011;7554;43.600;1.480;2023-12-22T14:33:32;2.13;;;0.90;;
14923;SDS011;7554;43.600;1.480;2023-12-22T14:35:59;1.60;;;0.97;;
14923;SDS011;7554;43.600;1.480;2023-12-22T14:38:26;1.13;;;0.80;;
14923;SDS011;7554;43.600;1.480;2023-12-22T14:40:54;2.33;;;0.93;;
14923;SDS011;7554;43.600;1.480;2023-12-22T14:43:21;2.27;;;0.90;;
14923;SDS011;7554;43.600;1.480;2023-12-22T14:45:48;3.57;;;1.07;;
14923;SDS011;7554;43.600;1.480;2023-12-22T14:48:16;6.13;;;1.30;;
14923;SDS011;7554;43.600;1.480;2023-12-22T14:50:44;4.20;;;1.20;;
14923;SDS011;7554;43.600;1.480;2023-12-22T14:53:12;4.77;;;1.60;;
14923;SDS011;7554;43.600;1.480;2023-12-22T14:55:39;1.90;;;1.30;;
14923;SDS011;7554;43.600;1.480;2023-12-22T14:58:07;2.63;;;1.20;;
14923;SDS011;7554;43.600;1.480;2023-12-22T15:00:35;2.00;;;1.33;;
14923;SDS011;7554;43.600;1.480;2023-12-22T15:03:03;2.53;;;1.40;;
14923;SDS011;7554;43.600;1.480;2023-12-22T15:05:30;3.27;;;1.60;;
14923;SDS011;7554;43.600;1.480;2023-12-22T15:07:59;3.63;;;1.93;;
14923;SDS011;7554;43.600;1.480;2023-12-22T15:10:27;2.70;;;1.20;;